Time;durP1;ratioP1;P1;durP2;ratioP2;P2;SDS_P1;SDS_P2;PMS_P1;PMS_P2;Temp;Humidity;BMP_temperature;BMP_pressure;BME280_temperature;BME280_humidity;BME280_pressure;Samples;Min_cycle;Max_cycle;Signal;HPM_P1;HPM_P2
2023/06/20 00:01:09;;;;;;;8.88;8.18;;;;;;;-141.84;63.51;21751.16;4972247;28;20200;-61
2023/06/20 00:03:39;;;;;;;9.48;8.68;;;;;;;-141.84;62.88;21741.00;4972222;28;20226;-62
2023/06/20 00:06:08;;;;;;;9.85;8.95;;;;;;;-141.84;62.35;21806.06;4970986;28;20208;-63
2023/06/20 00:08:36;;;;;;;8.80;8.10;;;;;;;-141.84;62.64;21802.00;4972273;28;20231;-62
2023/06/20 00:11:05;;;;;;;9.50;8.68;;;;;;;-141.84;62.77;21787.75;4972315;28;20571;-61
2023/06/20 00:13:34;;;;;;;8.88;8.13;;;;;;;-141.84;63.03;21765.38;4963663;28;20240;-62
2023/06/20 00:16:02;;;;;;;9.75;8.85;;;;;;;-141.84;63.26;21751.16;4970572;28;20235;-61
2023/06/20 00:18:31;;;;;;;9.27;8.38;;;;;;;-141.84;63.57;21702.34;4966299;28;20239;-61
2023/06/20 00:21:01;;;;;;;8.80;8.07;;;;;;;-141.84;63.80;21694.22;4971944;28;20619;-61
2023/06/20 00:23:30;;;;;;;9.95;9.13;;;;;;;-141.84;63.66;21738.97;4970870;28;20841;-61
2023/06/20 00:25:58;;;;;;;8.88;8.07;;;;;;;-141.84;63.91;21734.88;4964921;28;20215;-62
2023/06/20 00:28:27;;;;;;;9.68;8.57;;;;;;;-141.84;64.29;21734.88;4968975;28;20228;-62
2023/06/20 00:30:55;;;;;;;9.13;8.43;;;;;;;-141.84;64.35;21736.94;4971563;28;20259;-61
2023/06/20 00:33:24;;;;;;;9.80;8.82;;;;;;;-141.84;63.76;21722.69;4971371;28;20258;-61
2023/06/20 00:35:52;;;;;;;10.52;9.52;;;;;;;-141.84;62.11;21822.31;4971611;28;20204;-61
2023/06/20 00:38:22;;;;;;;9.55;8.75;;;;;;;-141.84;62.88;21755.22;4971283;28;20306;-62
2023/06/20 00:40:51;;;;;;;10.65;9.68;;;;;;;-141.84;62.34;21765.38;4971667;28;20243;-62
2023/06/20 00:43:19;;;;;;;10.18;9.38;;;;;;;-141.84;62.90;21765.38;4971435;28;20727;-61
2023/06/20 00:45:49;;;;;;;10.40;9.60;;;;;;;-141.84;63.21;21734.88;4971599;28;20231;-62
2023/06/20 00:48:18;;;;;;;10.70;9.60;;;;;;;-141.84;63.50;21736.94;4968744;28;20652;-61
2023/06/20 00:50:47;;;;;;;10.88;9.88;;;;;;;-141.84;63.33;21781.66;4967614;28;20196;-61
2023/06/20 00:53:16;;;;;;;9.98;9.18;;;;;;;-141.84;63.68;21720.66;4971524;28;20294;-62
2023/06/20 00:55:47;;;;;;;9.70;8.90;;;;;;;-141.84;63.73;21692.19;4970828;28;20235;-61
2023/06/20 00:58:16;;;;;;;10.18;9.38;;;;;;;-141.84;63.84;21726.75;4971220;28;20200;-60
2023/06/20 01:00:44;;;;;;;10.10;9.30;;;;;;;-141.84;63.87;21700.31;4971303;28;20208;-63
2023/06/20 01:03:14;;;;;;;9.55;8.75;;;;;;;-141.84;64.15;21700.31;4971055;28;20239;-62
2023/06/20 01:05:50;;;;;;;10.23;9.35;;;;;;;-141.84;63.97;21716.59;4959254;28;20201;-61
2023/06/20 01:08:28;;;;;;;9.88;9.10;;;;;;;-141.84;63.66;21704.38;4954165;28;20235;-61
2023/06/20 01:11:03;;;;;;;10.25;9.45;;;;;;;-141.84;63.87;21700.31;4969646;28;20295;-61
2023/06/20 01:13:44;;;;;;;9.48;8.68;;;;;;;-141.84;63.38;21724.72;4970873;28;20654;-61
2023/06/20 01:16:23;;;;;;;9.90;9.15;;;;;;;-141.84;63.53;21730.81;4970770;28;20626;-62
2023/06/20 01:19:04;;;;;;;9.45;8.60;;;;;;;-141.84;64.17;21710.50;4971294;28;20241;-62
2023/06/20 01:21:39;;;;;;;10.63;9.73;;;;;;;-141.84;63.82;21665.75;4971799;28;20246;-62
2023/06/20 01:24:14;;;;;;;9.50;8.70;;;;;;;-141.84;63.34;21741.00;4956728;28;20241;-62
2023/06/20 01:26:49;;;;;;;9.88;9.15;;;;;;;-141.84;64.01;21724.72;4971319;28;20207;-62
2023/06/20 01:29:23;;;;;;;10.65;9.75;;;;;;;-141.84;63.45;21720.66;4967660;28;20562;-62
2023/06/20 01:31:55;;;;;;;9.43;8.52;;;;;;;-141.84;64.22;21673.88;4975019;28;20202;-60
2023/06/20 01:34:27;;;;;;;8.93;8.23;;;;;;;-141.84;65.14;21643.38;4963517;28;20196;-62
2023/06/20 01:36:58;;;;;;;11.23;9.27;;;;;;;-141.84;65.46;21643.38;4973427;28;20213;-60
2023/06/20 01:39:32;;;;;;;9.80;8.85;;;;;;;-141.84;65.74;21625.09;4968961;28;20254;-62
2023/06/20 01:42:04;;;;;;;10.30;9.48;;;;;;;-141.84;66.33;21604.75;4974970;28;20200;-61
2023/06/20 01:44:36;;;;;;;10.85;9.95;;;;;;;-141.84;66.19;21608.81;4974492;28;20667;-61
2023/06/20 01:47:06;;;;;;;9.82;9.00;;;;;;;-141.84;66.83;21590.53;4973957;28;20251;-61
2023/06/20 01:49:36;;;;;;;9.60;8.90;;;;;;;-141.84;67.11;21562.06;4974537;28;20208;-61
2023/06/20 01:52:06;;;;;;;9.82;9.10;;;;;;;-141.84;67.42;21562.06;4973820;28;20227;-66
2023/06/20 01:54:37;;;;;;;9.77;9.00;;;;;;;-141.84;67.86;21523.44;4966646;28;20452;-62
2023/06/20 01:57:07;;;;;;;9.82;9.10;;;;;;;-141.84;68.02;21529.53;4960950;28;20239;-62
2023/06/20 01:59:37;;;;;;;9.60;8.90;;;;;;;-141.84;68.44;21464.47;4974180;28;20258;-62
2023/06/20 02:02:07;;;;;;;9.85;9.10;;;;;;;-141.84;68.20;21472.59;4974412;28;20192;-62
2023/06/20 02:04:37;;;;;;;10.30;9.30;;;;;;;-141.84;68.45;21507.16;4974962;28;20627;-62
2023/06/20 02:07:07;;;;;;;10.00;9.20;;;;;;;-141.84;68.52;21537.66;4970464;28;20212;-62
2023/06/20 02:09:39;;;;;;;10.48;9.57;;;;;;;-141.84;68.75;21511.22;4974513;28;20282;-62
2023/06/20 02:12:09;;;;;;;10.18;9.27;;;;;;;-141.84;68.92;21517.31;4973970;28;20295;-61
2023/06/20 02:14:39;;;;;;;9.93;9.07;;;;;;;-141.84;68.81;21509.19;4972396;28;20274;-61
2023/06/20 02:17:12;;;;;;;11.20;10.20;;;;;;;-141.84;68.93;21472.59;4960469;28;20239;-62
2023/06/20 02:19:42;;;;;;;11.27;10.27;;;;;;;-141.84;68.42;21537.66;4966145;28;20200;-62
2023/06/20 02:22:15;;;;;;;10.57;9.77;;;;;;;-141.84;68.18;21511.22;4974228;28;20562;-63
2023/06/20 02:24:48;;;;;;;10.23;9.38;;;;;;;-141.84;68.36;21533.59;4974189;28;20200;-62
2023/06/20 02:27:18;;;;;;;10.45;9.65;;;;;;;-141.84;68.75;21482.75;4965886;28;20242;-61
2023/06/20 02:29:50;;;;;;;10.73;9.70;;;;;;;-141.84;68.64;21513.25;4972230;28;20232;-61
2023/06/20 02:32:21;;;;;;;10.90;10.00;;;;;;;-141.84;68.59;21525.47;4974030;28;20196;-62
2023/06/20 02:34:50;;;;;;;10.23;9.18;;;;;;;-141.84;68.84;21492.94;4974115;28;20558;-61
2023/06/20 02:37:19;;;;;;;11.38;10.48;;;;;;;-141.84;68.43;21523.44;4973980;28;20234;-61
2023/06/20 02:39:50;;;;;;;11.02;9.93;;;;;;;-141.84;68.47;21547.81;4972845;28;20258;-61
2023/06/20 02:42:18;;;;;;;11.00;10.10;;;;;;;-141.84;68.57;21507.16;4972953;28;20196;-61
2023/06/20 02:44:47;;;;;;;10.40;9.60;;;;;;;-141.84;68.83;21492.94;4973690;28;20235;-61
2023/06/20 02:47:23;;;;;;;10.70;9.90;;;;;;;-141.84;69.11;21497.00;4973302;28;20727;-62
2023/06/20 02:49:59;;;;;;;10.75;9.75;;;;;;;-141.84;69.30;21474.63;4963857;28;20199;-62
2023/06/20 02:52:38;;;;;;;10.88;9.95;;;;;;;-141.84;68.99;21505.13;4961054;28;20636;-62
2023/06/20 02:55:15;;;;;;;10.68;9.88;;;;;;;-141.84;69.00;21513.25;4967001;28;20751;-62
2023/06/20 02:57:47;;;;;;;11.10;10.20;;;;;;;-141.84;68.90;21513.25;4973252;28;20235;-61
2023/06/20 03:00:18;;;;;;;10.80;9.88;;;;;;;-141.84;68.93;21484.78;4973011;28;20744;-61
2023/06/20 03:02:52;;;;;;;11.25;10.23;;;;;;;-141.84;69.25;21472.59;4975850;28;20291;-62
2023/06/20 03:05:22;;;;;;;11.10;10.18;;;;;;;-141.84;69.46;21466.50;4972039;28;20635;-61
2023/06/20 03:07:52;;;;;;;11.60;10.55;;;;;;;-141.84;69.34;21468.53;4973030;28;20213;-63
2023/06/20 03:10:24;;;;;;;11.85;10.85;;;;;;;-141.84;69.43;21492.94;4973392;28;20263;-61
2023/06/20 03:12:52;;;;;;;11.10;10.20;;;;;;;-141.84;69.59;21454.28;4973045;28;20247;-62
2023/06/20 03:15:21;;;;;;;11.35;10.23;;;;;;;-141.84;69.73;21470.56;4972914;28;20627;-63
2023/06/20 03:17:50;;;;;;;11.38;10.50;;;;;;;-141.84;69.27;21488.88;4973347;28;20266;-62
2023/06/20 03:20:20;;;;;;;11.20;10.25;;;;;;;-141.84;69.41;21505.13;4972907;28;20203;-61
2023/06/20 03:22:48;;;;;;;12.00;10.90;;;;;;;-141.84;69.31;21488.88;4972998;28;20251;-61
2023/06/20 03:25:17;;;;;;;11.25;10.25;;;;;;;-141.84;69.85;21464.47;4973788;28;20243;-62
2023/06/20 03:27:47;;;;;;;10.65;9.85;;;;;;;-141.84;69.96;21480.72;4964476;28;20304;-61
2023/06/20 03:30:16;;;;;;;11.48;10.38;;;;;;;-141.84;69.96;21460.41;4972717;28;20711;-62
2023/06/20 03:32:45;;;;;;;10.68;9.88;;;;;;;-141.84;70.27;21456.34;4974427;28;20235;-62
2023/06/20 03:35:13;;;;;;;10.60;9.70;;;;;;;-141.84;70.15;21470.56;4972791;28;20200;-62
2023/06/20 03:37:42;;;;;;;11.70;10.73;;;;;;;-141.84;69.80;21478.69;4972683;28;20226;-61
2023/06/20 03:40:12;;;;;;;11.60;10.32;;;;;;;-141.84;69.85;21488.88;4971749;28;20204;-62
2023/06/20 03:42:41;;;;;;;13.80;12.57;;;;;;;-141.84;68.03;21566.13;4972055;28;20239;-61
2023/06/20 03:45:11;;;;;;;11.70;10.70;;;;;;;-141.84;68.08;21551.91;4963294;28;20243;-62
2023/06/20 03:47:40;;;;;;;11.88;10.73;;;;;;;-141.84;68.36;21553.94;4972487;28;20251;-61
2023/06/20 03:50:09;;;;;;;11.30;10.30;;;;;;;-141.84;68.55;21576.28;4962798;28;20588;-61
2023/06/20 03:52:37;;;;;;;10.60;9.73;;;;;;;-141.84;68.66;21560.03;4971685;28;20649;-62
2023/06/20 03:55:07;;;;;;;10.77;9.98;;;;;;;-141.84;68.71;21533.59;4972383;28;20255;-62
2023/06/20 03:57:35;;;;;;;10.52;9.63;;;;;;;-141.84;68.41;21543.75;4972186;28;20239;-63
2023/06/20 04:00:09;;;;;;;9.77;9.07;;;;;;;-141.84;68.50;21570.19;4971770;28;20200;-63
2023/06/20 04:02:41;;;;;;;11.68;10.65;;;;;;;-141.84;68.12;21590.53;4972554;28;20291;-63
2023/06/20 04:05:10;;;;;;;11.98;10.88;;;;;;;-141.84;67.76;21592.56;4972098;28;20231;-63
2023/06/20 04:07:41;;;;;;;12.10;11.00;;;;;;;-141.84;67.24;21619.00;4972502;28;20240;-63
2023/06/20 04:10:11;;;;;;;11.43;10.43;;;;;;;-141.84;67.06;21621.03;4972419;28;20307;-61
2023/06/20 04:12:41;;;;;;;12.05;11.02;;;;;;;-141.84;66.78;21633.22;4972100;28;20212;-62
2023/06/20 04:15:11;;;;;;;12.68;11.57;;;;;;;-141.84;66.68;21661.69;4971499;28;20610;-62
2023/06/20 04:17:41;;;;;;;10.85;9.90;;;;;;;-141.84;66.66;21649.50;4971496;28;20200;-62
2023/06/20 04:20:12;;;;;;;12.38;11.27;;;;;;;-141.84;66.40;21694.22;4970029;28;20234;-61
2023/06/20 04:22:44;;;;;;;11.27;10.27;;;;;;;-141.84;66.38;21690.16;4972098;28;20234;-61
2023/06/20 04:25:13;;;;;;;10.82;10.02;;;;;;;-141.84;66.42;21655.59;4972355;28;20259;-62
2023/06/20 04:27:42;;;;;;;12.05;10.85;;;;;;;-141.84;66.50;21690.16;4971741;28;20208;-61
2023/06/20 04:30:11;;;;;;;11.73;10.73;;;;;;;-141.84;66.00;21712.53;4971518;28;20723;-62
2023/06/20 04:32:41;;;;;;;10.93;10.02;;;;;;;-141.84;66.25;21714.56;4971741;28;20234;-62
2023/06/20 04:35:11;;;;;;;11.07;10.13;;;;;;;-141.84;65.85;21736.94;4971664;28;20690;-61
2023/06/20 04:37:40;;;;;;;12.35;11.25;;;;;;;-141.84;65.66;21734.88;4971546;28;20282;-62
2023/06/20 04:40:11;;;;;;;12.48;11.48;;;;;;;-141.84;64.62;21777.59;4964793;28;20581;-62
2023/06/20 04:42:39;;;;;;;12.68;11.63;;;;;;;-141.84;64.00;21804.03;4971431;28;20207;-62
2023/06/20 04:45:09;;;;;;;12.75;11.70;;;;;;;-141.84;64.29;21810.13;4971335;28;20291;-64
2023/06/20 04:47:38;;;;;;;12.50;11.32;;;;;;;-141.84;64.42;21783.69;4970920;28;20211;-61
2023/06/20 04:50:09;;;;;;;12.70;11.55;;;;;;;-141.84;63.98;21810.13;4967050;28;20578;-62
2023/06/20 04:52:38;;;;;;;10.07;9.18;;;;;;;-141.84;64.57;21816.22;4971481;28;20208;-62
2023/06/20 04:55:07;;;;;;;10.82;9.93;;;;;;;-141.84;64.76;21779.63;4963705;28;20297;-63
2023/06/20 04:57:35;;;;;;;11.15;10.25;;;;;;;-141.84;64.63;21779.63;4971354;28;20291;-62
2023/06/20 05:00:07;;;;;;;9.25;8.55;;;;;;;-141.84;64.63;21812.16;4971244;28;20532;-64
2023/06/20 05:02:36;;;;;;;11.98;10.90;;;;;;;-141.84;64.01;21834.53;4970836;28;20201;-62
2023/06/20 05:05:07;;;;;;;11.73;10.70;;;;;;;-141.84;63.76;21883.31;4970616;28;20614;-62
2023/06/20 05:07:35;;;;;;;13.15;11.85;;;;;;;-141.84;62.67;21863.00;4971419;28;20235;-61
2023/06/20 05:10:04;;;;;;;11.82;10.82;;;;;;;-141.84;63.45;21818.25;4971054;28;20622;-61
2023/06/20 05:12:33;;;;;;;12.65;11.60;;;;;;;-141.84;63.90;21797.94;4970906;28;20315;-62
2023/06/20 05:15:02;;;;;;;13.32;12.13;;;;;;;-141.84;63.68;21838.59;4970542;28;20295;-61
2023/06/20 05:17:30;;;;;;;13.25;12.00;;;;;;;-141.84;64.95;21797.94;4971124;28;20291;-61
2023/06/20 05:20:05;;;;;;;13.82;12.55;;;;;;;-141.84;66.85;21720.66;4970809;28;20211;-59
2023/06/20 05:22:35;;;;;;;12.45;11.38;;;;;;;-141.84;68.30;21716.59;4967963;28;20195;-61
2023/06/20 05:25:04;;;;;;;15.15;13.85;;;;;;;-141.84;70.50;21629.16;4969491;28;20305;-61
2023/06/20 05:27:32;;;;;;;14.02;12.73;;;;;;;-141.84;70.67;21582.38;4969509;28;20287;-62
2023/06/20 05:30:01;;;;;;;12.80;11.73;;;;;;;-141.84;71.38;21584.44;4969740;28;20295;-62
2023/06/20 05:32:30;;;;;;;14.70;13.40;;;;;;;-141.84;71.05;21586.47;4969659;28;20216;-62
2023/06/20 05:34:59;;;;;;;13.23;12.13;;;;;;;-141.84;71.35;21570.19;4968903;28;20223;-62
2023/06/20 05:37:28;;;;;;;14.40;13.10;;;;;;;-141.84;72.01;21600.69;4969399;28;20315;-63
2023/06/20 05:39:58;;;;;;;14.95;13.55;;;;;;;-141.84;72.38;21616.97;4954005;28;20597;-62
2023/06/20 05:42:29;;;;;;;14.70;13.40;;;;;;;-141.84;71.18;21602.72;4949816;28;20799;-62
2023/06/20 05:44:57;;;;;;;16.02;14.63;;;;;;;-141.84;73.05;21558.00;4949750;28;20296;-62
2023/06/20 05:47:26;;;;;;;15.80;13.68;;;;;;;-141.84;74.13;21588.50;4950015;28;20231;-62
2023/06/20 05:49:57;;;;;;;15.48;14.02;;;;;;;-141.84;73.49;21582.38;4967892;28;20243;-62
2023/06/20 05:52:26;;;;;;;14.35;13.05;;;;;;;-141.84;74.08;21625.09;4968526;28;20200;-62
2023/06/20 05:54:54;;;;;;;15.70;14.30;;;;;;;-141.84;73.11;21653.56;4968849;28;20222;-62
2023/06/20 05:57:24;;;;;;;15.38;13.75;;;;;;;-141.84;71.29;21724.72;4969116;28;20212;-62
2023/06/20 05:59:53;;;;;;;12.50;11.50;;;;;;;-141.84;70.51;21783.69;4968661;28;20239;-63
2023/06/20 06:02:21;;;;;;;13.63;12.40;;;;;;;-141.84;67.55;21863.00;4968840;28;20311;-61
2023/06/20 06:04:50;;;;;;;13.65;12.35;;;;;;;-141.84;65.91;21905.69;4968596;28;20519;-62
2023/06/20 06:07:19;;;;;;;12.52;11.35;;;;;;;-141.84;66.33;21875.19;4969072;28;20215;-62
2023/06/20 06:09:48;;;;;;;14.75;13.52;;;;;;;-141.84;64.95;21907.72;4968773;28;20283;-61
2023/06/20 06:12:16;;;;;;;15.55;14.15;;;;;;;-141.84;64.64;21875.19;4968886;28;20303;-62
2023/06/20 06:14:47;;;;;;;12.90;11.82;;;;;;;-141.84;65.32;21873.16;4969684;28;20244;-59
2023/06/20 06:17:15;;;;;;;14.02;12.73;;;;;;;-141.84;65.42;21871.13;4970972;28;20211;-62
2023/06/20 06:19:44;;;;;;;12.45;11.38;;;;;;;-141.84;66.20;21844.69;4967546;28;20236;-61
2023/06/20 06:22:13;;;;;;;10.98;10.07;;;;;;;-141.84;66.80;21832.50;4972966;28;20234;-63
2023/06/20 06:24:41;;;;;;;13.95;12.65;;;;;;;-141.84;66.43;21889.44;4974128;28;20660;-63
2023/06/20 06:27:10;;;;;;;13.57;12.48;;;;;;;-141.84;67.30;21863.00;4974520;28;20204;-62
2023/06/20 06:29:39;;;;;;;14.35;13.15;;;;;;;-141.84;66.84;21934.16;4974142;28;20208;-62
2023/06/20 06:32:10;;;;;;;15.38;13.82;;;;;;;-141.84;68.38;21889.44;4974402;28;20204;-62
2023/06/20 06:34:41;;;;;;;16.77;15.27;;;;;;;-141.84;67.10;21956.53;4973794;28;20208;-63
2023/06/20 06:37:10;;;;;;;16.92;15.32;;;;;;;-141.84;67.57;21891.47;4974137;28;20196;-63
2023/06/20 06:39:39;;;;;;;13.90;12.70;;;;;;;-141.84;68.13;21891.47;4968477;28;20235;-63
2023/06/20 06:42:08;;;;;;;14.35;13.00;;;;;;;-141.84;67.60;21879.25;4974088;28;20283;-62
2023/06/20 06:44:37;;;;;;;16.23;14.82;;;;;;;-141.84;68.50;21887.41;4974171;28;20289;-64
2023/06/20 06:47:06;;;;;;;16.38;14.98;;;;;;;-141.84;68.36;21948.41;4970276;28;20288;-62
2023/06/20 06:49:36;;;;;;;16.52;15.00;;;;;;;-141.84;67.01;21911.78;4963036;28;20296;-62
2023/06/20 06:52:05;;;;;;;16.33;14.80;;;;;;;-141.84;68.08;21907.72;4971503;28;20239;-63
2023/06/20 06:54:33;;;;;;;15.73;14.32;;;;;;;-141.84;68.73;21887.41;4973760;28;20201;-62
2023/06/20 06:57:02;;;;;;;14.60;13.20;;;;;;;-141.84;67.51;21879.25;4973946;28;20299;-62
2023/06/20 06:59:30;;;;;;;14.45;13.25;;;;;;;-141.84;67.54;21911.78;4974106;28;20311;-63
2023/06/20 07:01:59;;;;;;;14.65;13.05;;;;;;;-141.84;67.42;21887.41;4973734;28;20284;-63
2023/06/20 07:04:28;;;;;;;13.90;12.70;;;;;;;-141.84;65.44;21854.88;4973584;28;20676;-63
2023/06/20 07:06:58;;;;;;;12.30;11.20;;;;;;;-141.84;66.31;21822.31;4973428;28;20536;-63
2023/06/20 07:09:26;;;;;;;13.10;11.80;;;;;;;-141.84;66.56;21828.44;4973771;28;20548;-64
2023/06/20 07:11:55;;;;;;;13.45;12.15;;;;;;;-141.84;66.58;21781.66;4973522;28;20262;-63
2023/06/20 07:14:23;;;;;;;12.32;11.27;;;;;;;-141.84;66.49;21777.59;4973682;28;20742;-63
2023/06/20 07:16:52;;;;;;;11.93;10.82;;;;;;;-141.84;67.60;21712.53;4973490;28;20266;-64
2023/06/20 07:19:33;;;;;;;10.80;9.90;;;;;;;-141.84;68.04;21686.09;4973565;28;20226;-63
2023/06/20 07:22:03;;;;;;;13.65;12.45;;;;;;;-141.84;67.49;21714.56;4973147;28;20622;-62
2023/06/20 07:24:32;;;;;;;12.75;11.48;;;;;;;-141.84;68.04;21680.00;4973534;28;20254;-62
2023/06/20 07:27:01;;;;;;;13.43;12.32;;;;;;;-141.84;69.38;21661.69;4972322;28;20270;-62
2023/06/20 07:29:29;;;;;;;15.43;14.02;;;;;;;-141.84;69.67;21631.19;4954227;28;20292;-63
2023/06/20 07:31:58;;;;;;;14.05;12.77;;;;;;;-141.84;70.67;21568.16;4953738;28;20209;-62
2023/06/20 07:34:26;;;;;;;15.02;13.75;;;;;;;-141.84;71.29;21541.72;4954147;28;20291;-64
2023/06/20 07:36:55;;;;;;;15.32;13.93;;;;;;;-141.84;71.10;21529.53;4969228;28;20259;-61
2023/06/20 07:39:25;;;;;;;14.32;13.02;;;;;;;-141.84;72.06;21535.63;4962377;28;20763;-61
2023/06/20 07:41:53;;;;;;;15.95;14.55;;;;;;;-141.84;72.94;21521.41;4954062;28;20768;-61
2023/06/20 07:44:22;;;;;;;15.90;14.52;;;;;;;-141.84;72.99;21472.59;4954208;28;20279;-61
2023/06/20 07:46:50;;;;;;;16.25;14.65;;;;;;;-141.84;73.71;21478.69;4953354;28;20296;-62
2023/06/20 07:49:19;;;;;;;16.55;15.15;;;;;;;-141.84;74.78;21454.28;4960022;28;20204;-61
2023/06/20 07:51:47;;;;;;;16.05;14.55;;;;;;;-141.84;75.80;21431.94;4970668;28;20248;-61
2023/06/20 07:54:16;;;;;;;14.50;13.20;;;;;;;-141.84;77.49;21370.94;4971637;28;20642;-64
2023/06/20 07:56:46;;;;;;;13.77;12.48;;;;;;;-141.84;77.38;21391.28;4972663;28;20271;-63
2023/06/20 07:59:14;;;;;;;11.43;10.50;;;;;;;-141.84;77.02;21425.84;4972968;28;20642;-62
2023/06/20 08:01:43;;;;;;;9.80;8.95;;;;;;;-141.84;76.79;21440.06;4972692;28;20203;-64
2023/06/20 08:04:12;;;;;;;9.15;8.25;;;;;;;-141.84;75.86;21452.25;4972582;28;20698;-61
2023/06/20 08:06:41;;;;;;;8.00;7.18;;;;;;;-141.84;75.63;21484.78;4972777;28;20200;-61
2023/06/20 08:09:09;;;;;;;7.03;6.43;;;;;;;-141.84;76.30;21454.28;4972866;28;20228;-60
2023/06/20 08:11:38;;;;;;;7.75;7.15;;;;;;;-141.84;77.23;21448.19;4972692;28;20250;-61
2023/06/20 08:14:08;;;;;;;6.78;6.18;;;;;;;-141.84;77.67;21450.22;4972626;28;20203;-60
2023/06/20 08:16:36;;;;;;;6.82;6.18;;;;;;;-141.84;76.32;21460.41;4972347;28;20803;-59
2023/06/20 08:19:05;;;;;;;6.85;6.25;;;;;;;-141.84;75.86;21474.63;4972036;28;20730;-60
2023/06/20 08:21:33;;;;;;;6.45;5.85;;;;;;;-141.84;75.69;21450.22;4972642;28;20247;-61
2023/06/20 08:24:02;;;;;;;7.85;6.63;;;;;;;-141.84;76.59;21480.72;4972852;28;20247;-60
2023/06/20 08:26:30;;;;;;;7.90;7.13;;;;;;;-141.84;76.56;21436.00;4972267;28;20196;-60
2023/06/20 08:28:59;;;;;;;9.45;8.55;;;;;;;-141.84;77.14;21391.28;4972272;28;20243;-62
2023/06/20 08:31:37;;;;;;;8.13;7.43;;;;;;;-141.84;78.54;21350.59;4969328;28;20206;-63
2023/06/20 08:34:06;;;;;;;10.43;9.27;;;;;;;-141.84;80.59;21318.06;4952745;28;20189;-62
2023/06/20 08:36:36;;;;;;;11.82;10.15;;;;;;;-141.84;81.06;21318.06;4952898;29;20260;-63
2023/06/20 08:39:05;;;;;;;11.77;10.50;;;;;;;-141.84;82.16;21253.00;4955302;28;20238;-61
2023/06/20 08:41:33;;;;;;;12.13;10.80;;;;;;;-141.84;83.65;21210.31;4972288;28;20239;-62
2023/06/20 08:44:02;;;;;;;13.13;11.98;;;;;;;-141.84;83.56;21206.25;4972247;28;20242;-62
2023/06/20 08:46:32;;;;;;;12.82;11.73;;;;;;;-141.84;84.76;21151.34;4972203;28;20292;-61
2023/06/20 08:49:03;;;;;;;13.30;12.10;;;;;;;-141.84;86.14;21114.75;4971802;28;20204;-62
2023/06/20 08:51:33;;;;;;;13.45;12.35;;;;;;;-141.84;86.74;21090.38;4971887;28;20199;-64
2023/06/20 08:54:03;;;;;;;14.73;13.43;;;;;;;-141.84;87.01;21104.59;4972372;28;20271;-61
2023/06/20 08:56:32;;;;;;;16.73;13.98;;;;;;;-141.84;87.43;21143.22;4972047;28;20352;-61
2023/06/20 08:59:00;;;;;;;17.02;15.43;;;;;;;-141.84;86.81;21153.41;4971875;28;20243;-63
2023/06/20 09:01:29;;;;;;;16.08;14.65;;;;;;;-141.84;84.98;21271.31;4971944;28;20579;-62
2023/06/20 09:04:03;;;;;;;17.17;15.45;;;;;;;-141.84;83.22;21342.47;4971673;28;20254;-62
2023/06/20 09:06:37;;;;;;;17.48;15.88;;;;;;;-141.84;79.82;21436.00;4971808;28;20193;-62
2023/06/20 09:09:06;;;;;;;16.30;14.82;;;;;;;-141.84;76.50;21551.91;4971401;28;20195;-65
2023/06/20 09:11:36;;;;;;;17.60;15.93;;;;;;;-141.84;75.32;21645.44;4971907;28;20282;-64
2023/06/20 09:14:05;;;;;;;16.67;15.27;;;;;;;-141.84;71.93;21781.66;4971558;28;20656;-63
2023/06/20 09:16:33;;;;;;;15.60;14.20;;;;;;;-141.84;70.32;21980.94;4971486;28;20303;-62
2023/06/20 09:19:03;;;;;;;16.67;14.98;;;;;;;-141.84;67.70;22058.22;4971510;28;20208;-63
2023/06/20 09:21:37;;;;;;;14.32;13.00;;;;;;;-141.84;66.91;22176.16;4971491;28;20675;-62
2023/06/20 09:24:07;;;;;;;15.65;14.32;;;;;;;-141.84;66.40;22210.72;4971673;28;20228;-62
2023/06/20 09:26:36;;;;;;;16.05;14.65;;;;;;;-141.84;64.19;22314.44;4971731;28;20203;-60
2023/06/20 09:29:09;;;;;;;16.23;14.82;;;;;;;-141.84;63.89;22371.38;4958331;28;20727;-61
2023/06/20 09:31:42;;;;;;;17.75;16.05;;;;;;;-141.84;64.60;22275.81;4952372;28;20193;-62
2023/06/20 09:34:13;;;;;;;16.55;15.10;;;;;;;-141.84;62.97;22432.41;4952294;28;20288;-62
2023/06/20 09:36:43;;;;;;;16.35;15.00;;;;;;;-141.84;61.71;22534.09;4952793;28;20320;-61
2023/06/20 09:39:13;;;;;;;16.85;15.48;;;;;;;-141.84;62.12;22536.13;4952025;28;20256;-63
2023/06/20 09:41:45;;;;;;;17.25;15.85;;;;;;;-141.84;62.04;22501.53;4952361;28;20274;-62
2023/06/20 09:44:14;;;;;;;17.08;15.68;;;;;;;-141.84;63.40;22397.81;4951830;28;20251;-61
2023/06/20 09:46:43;;;;;;;16.73;15.23;;;;;;;-141.84;65.23;22320.53;4952205;28;20264;-61
2023/06/20 09:49:14;;;;;;;16.15;14.75;;;;;;;-141.84;65.55;22251.41;4964109;28;20706;-60
2023/06/20 09:51:48;;;;;;;16.38;14.88;;;;;;;-141.84;64.85;22208.69;4975039;28;20495;-60
2023/06/20 09:54:26;;;;;;;16.52;15.10;;;;;;;-141.84;65.60;22212.75;4974948;28;20722;-61
2023/06/20 09:57:02;;;;;;;15.88;14.48;;;;;;;-141.84;66.94;22143.63;4975310;28;20306;-62
2023/06/20 09:59:36;;;;;;;15.98;14.63;;;;;;;-141.84;66.28;22176.16;4974918;28;20283;-62
2023/06/20 10:02:08;;;;;;;15.65;14.45;;;;;;;-141.84;66.26;22159.88;4974966;28;20624;-62
2023/06/20 10:04:42;;;;;;;13.85;12.60;;;;;;;-141.84;66.31;22163.94;4975024;28;20189;-62
2023/06/20 10:07:14;;;;;;;16.50;14.90;;;;;;;-141.84;66.33;22239.19;4975137;28;20268;-62
2023/06/20 10:09:44;;;;;;;15.40;13.93;;;;;;;-141.84;64.64;22304.28;4975020;28;20216;-64
2023/06/20 10:12:13;;;;;;;16.27;14.77;;;;;;;-141.84;63.54;22373.41;4975227;28;20231;-63
2023/06/20 10:14:42;;;;;;;16.10;14.70;;;;;;;-141.84;64.50;22298.16;4974573;28;20323;-59
2023/06/20 10:17:12;;;;;;;13.82;12.73;;;;;;;-141.84;64.51;22306.31;4974577;28;20298;-62
2023/06/20 10:19:50;;;;;;;15.23;13.95;;;;;;;-141.84;63.87;22279.88;4969900;28;20208;-63
2023/06/20 10:22:34;;;;;;;16.25;14.85;;;;;;;-141.84;64.96;22267.66;4973083;28;20317;-63
2023/06/20 10:25:11;;;;;;;16.48;15.07;;;;;;;-141.84;66.23;22243.25;4973833;28;20319;-62
2023/06/20 10:27:41;;;;;;;17.05;15.73;;;;;;;-141.84;65.48;22275.81;4961788;28;20215;-63
2023/06/20 10:30:12;;;;;;;17.33;15.85;;;;;;;-141.84;66.07;22298.16;4962932;28;20196;-63
2023/06/20 10:33:07;;;;;;;15.60;14.35;;;;;;;-141.84;66.10;22229.03;4973297;28;20208;-64
2023/06/20 10:35:47;;;;;;;15.85;14.35;;;;;;;-141.84;65.36;22320.53;4955775;28;20244;-61
2023/06/20 10:38:16;;;;;;;14.48;13.27;;;;;;;-141.84;65.63;22310.38;4956920;28;20251;-62
2023/06/20 10:40:45;;;;;;;14.38;13.07;;;;;;;-141.84;64.39;22344.94;4974728;28;20204;-62
2023/06/20 10:43:17;;;;;;;15.55;14.25;;;;;;;-141.84;64.01;22391.72;4974243;28;20212;-64
2023/06/20 10:45:58;;;;;;;14.95;13.65;;;;;;;-141.84;64.48;22383.59;4974357;28;20742;-62
2023/06/20 10:48:27;;;;;;;15.38;14.10;;;;;;;-141.84;64.40;22361.22;4973884;28;20204;-63
2023/06/20 10:51:01;;;;;;;16.58;15.07;;;;;;;-141.84;63.71;22383.59;4974191;28;20235;-62
2023/06/20 10:53:30;;;;;;;16.33;14.82;;;;;;;-141.84;63.96;22403.94;4974127;28;20227;-63
2023/06/20 10:55:58;;;;;;;15.15;13.85;;;;;;;-141.84;63.17;22424.25;4974512;28;20231;-62
2023/06/20 10:58:27;;;;;;;14.57;13.27;;;;;;;-141.84;62.75;22438.50;4974221;28;20228;-63
2023/06/20 11:01:01;;;;;;;13.15;12.05;;;;;;;-141.84;62.31;22456.81;4972477;28;20192;-63
2023/06/20 11:03:30;;;;;;;15.85;14.45;;;;;;;-141.84;62.63;22471.03;4973021;28;20247;-63
2023/06/20 11:06:01;;;;;;;14.57;13.40;;;;;;;-141.84;63.43;22428.31;4974212;28;20613;-63
2023/06/20 11:08:30;;;;;;;14.02;12.73;;;;;;;-141.84;62.84;22497.47;4974190;28;20184;-64
2023/06/20 11:11:01;;;;;;;14.20;12.90;;;;;;;-141.84;60.90;22523.91;4973738;28;20751;-64
2023/06/20 11:13:29;;;;;;;13.90;12.80;;;;;;;-141.84;61.40;22503.56;4974175;28;20198;-63
2023/06/20 11:15:58;;;;;;;13.20;12.10;;;;;;;-141.84;61.40;22521.88;4973234;28;20264;-62
2023/06/20 11:18:26;;;;;;;13.57;12.43;;;;;;;-141.84;60.77;22546.28;4973032;28;20275;-62